Southgate, MI (48195)

03:44 PM EDT del 07 Luglio 2015 (GMT -0400)
Southgate | | Change Station
CLOSE
Current Station
Stazione meteo personale
Location: Southgate, MI
Altitudine: 587 ft
Stazioni meteo nelle vicinanze

Alt. 587 ft 42.21 °N, 83.19 °W | Updated 4 minutes ago

Pioggia
Pioggia
68.3 °F
Sembra 68.3 °F
N
4.0
Vento Variabile Vento da Nord
Gusts 4.0 mph

Oggi
Massima -- | Minima -- °F
--% Possibilità di precip.
Ieri
Massima -- | Minima -- °F
Precip. -- in
6:03 AM 9:11 PM
Gobba a levante, 62% visible
Pressione 29.89 in
Visibilità 6.0 miglia
Nuvole Nubi sparse 800 ft
Molto nuvoloso 1400 ft
Coperto 2000 ft
Punto di rugiada 66 °F
Umidità 92%
Piovosità 0.10 in
Spessore del manto nevoso Non disponibile.
Raggi UV 0.9 fuori da 12
Polline .60 fuori da 12
Qualità dell'aria Non disponibile.
Flu Activity Non disponibile.
SPECI KDTW 071926Z 31009KT 6SM -RA BR SCT008 BKN014 OVC020 20/19 A2989 RMK AO2 WSHFT 1845 P0012

More Conditions Fewer Conditions

Pressione 29.89 in
Visibilità 6.0 miglia
Nuvole Nubi sparse 800 ft
Molto nuvoloso 1400 ft
Coperto 2000 ft
Punto di rugiada 66 °F
Umidità 92%
Piovosità 0.10 in
Spessore del manto nevoso Non disponibile.
Raggi UV 0.9 fuori da 12
Polline .60 fuori da 12
Qualità dell'aria Non disponibile.
Flu Activity Non disponibile.
SPECI KDTW 071926Z 31009KT 6SM -RA BR SCT008 BKN014 OVC020 20/19 A2989 RMK AO2 WSHFT 1845 P0012

More Conditions Fewer Conditions

10-Day Weather Forecast

×

Almanac

Astronomia

Jul. 07, 2015 Alba Tramonto
Ora attuale
Crepuscolo civile
Crepuscolo nautico
Crepuscolo astronomico
Luna
Estensione della luce visibile
Lunghezza del giorno
Tomorrow will be .
, % of the Moon is Illuminated

Gli estremi di oggi

State Highs State Lows

Community

WunderPhotos

Upload Photos

1,835,884 foto caricate!

WunderBlogs® & News

Nearby

Qualità dell'aria

  Qualità dell'aria Indice AQ Inquinante
Not available.

Profondità neve

Stazione Profondità Altitudine

Attività sismica

Città  Distanza Mag. Data & Ora
Minimo Magnitudo Mostrato è 2.5.

Temperature delle acque costiere

Località Temperatura

Stations

Stazioni meteo nelle vicinanze

Ubicazione della stazione Temp. Raffreddamento del vento Punto di rugiada Umidità Vento Precip. Alt. Aggiornato Tipo